Time;durP1;ratioP1;P1;durP2;ratioP2;P2;SDS_P1;SDS_P2;PMS_P1;PMS_P2;Temp;Humidity;BMP_temperature;BMP_pressure;BME280_temperature;BME280_humidity;BME280_pressure;Samples;Min_cycle;Max_cycle;Signal;HPM_P1;HPM_P2
2023/08/01 00:02:25;;;;;;;1.30;1.00;;;;;;;-128.00;-1.00;-1.00;18461;289;7504476;-32
2023/08/01 00:04:51;;;;;;;5.40;1.90;;;;;;;-128.00;-1.00;-1.00;18843;296;7504427;-35
2023/08/01 00:07:17;;;;;;;5.50;1.70;;;;;;;-128.00;-1.00;-1.00;18866;296;7504445;-32
2023/08/01 00:09:43;;;;;;;7.80;2.00;;;;;;;-128.00;-1.00;-1.00;18843;285;7504868;-35
2023/08/01 00:12:10;;;;;;;2.70;1.50;;;;;;;-128.00;-1.00;-1.00;18863;285;7504426;-35
2023/08/01 00:14:36;;;;;;;10.00;0.90;;;;;;;-128.00;-1.00;-1.00;18867;285;7504813;-35
2023/08/01 00:17:03;;;;;;;3.10;1.60;;;;;;;-128.00;-1.00;-1.00;18851;289;7504392;-31
2023/08/01 00:19:29;;;;;;;2.30;1.60;;;;;;;-128.00;-1.00;-1.00;18458;285;7504739;-31
2023/08/01 00:21:54;;;;;;;3.00;1.20;;;;;;;-128.00;-1.00;-1.00;18475;289;7504777;-35
2023/08/01 00:24:21;;;;;;;19.90;1.50;;;;;;;-128.00;-1.00;-1.00;18858;296;7505098;-31
2023/08/01 00:26:47;;;;;;;1.80;1.20;;;;;;;-128.00;-1.00;-1.00;18877;296;7504760;-35
2023/08/01 00:29:13;;;;;;;2.10;1.60;;;;;;;-128.00;-1.00;-1.00;18486;285;7506566;-31
2023/08/01 00:31:39;;;;;;;3.20;1.10;;;;;;;-128.00;-1.00;-1.00;18471;296;7505914;-32
2023/08/01 00:34:05;;;;;;;3.70;1.00;;;;;;;-128.00;-1.00;-1.00;18481;289;7506067;-32
2023/08/01 00:36:31;;;;;;;2.60;1.10;;;;;;;-128.00;-1.00;-1.00;18899;296;7505181;-32
2023/08/01 01:19:30;;;;;;;3.50;1.50;;;;;;;-98.88;13.99;19675.14;19581;295;8045564;-35
2023/08/01 01:21:56;;;;;;;3.20;1.40;;;;;;;-128.00;-1.00;-1.00;18658;295;7504747;-36
2023/08/01 01:24:22;;;;;;;2.70;1.40;;;;;;;-128.00;-1.00;-1.00;18924;287;7504714;-32
2023/08/01 01:26:49;;;;;;;3.40;1.80;;;;;;;-128.00;-1.00;-1.00;18911;334;7505184;-35
2023/08/01 01:29:15;;;;;;;2.20;1.00;;;;;;;-128.00;-1.00;-1.00;18892;338;7504966;-32
2023/08/01 01:31:41;;;;;;;2.50;1.30;;;;;;;-128.00;-1.00;-1.00;18887;294;7504751;-36
2023/08/01 01:34:08;;;;;;;2.70;1.20;;;;;;;-128.00;-1.00;-1.00;18923;294;7504375;-32
2023/08/01 01:36:34;;;;;;;2.90;1.20;;;;;;;-128.00;-1.00;-1.00;18896;294;7505568;-36
2023/08/01 01:39:00;;;;;;;3.80;1.40;;;;;;;-128.00;-1.00;-1.00;18897;294;7505023;-35
2023/08/01 01:41:26;;;;;;;1.80;0.90;;;;;;;-128.00;-1.00;-1.00;18897;334;7504428;-31
2023/08/01 01:43:53;;;;;;;1.40;0.60;;;;;;;-128.00;-1.00;-1.00;18905;346;7505309;-35
2023/08/01 01:46:19;;;;;;;5.00;1.50;;;;;;;-128.00;-1.00;-1.00;18498;294;7504338;-31
2023/08/01 01:48:45;;;;;;;1.90;0.70;;;;;;;-128.00;-1.00;-1.00;18539;294;7504938;-31
2023/08/01 01:51:10;;;;;;;2.30;1.30;;;;;;;-128.00;-1.00;-1.00;18490;306;7504698;-31
2023/08/01 01:53:36;;;;;;;3.50;1.30;;;;;;;-128.00;-1.00;-1.00;18472;294;7506286;-35
2023/08/01 01:56:02;;;;;;;3.90;1.50;;;;;;;-128.00;-1.00;-1.00;18489;294;7505258;-35
2023/08/01 01:58:27;;;;;;;1.80;0.80;;;;;;;-128.00;-1.00;-1.00;18515;286;7504400;-36
2023/08/01 02:00:53;;;;;;;1.80;0.90;;;;;;;-128.00;-1.00;-1.00;18496;294;7504393;-36
2023/08/01 02:03:19;;;;;;;3.20;1.40;;;;;;;-128.00;-1.00;-1.00;18538;294;7505114;-32
2023/08/01 02:05:44;;;;;;;1.90;1.20;;;;;;;-128.00;-1.00;-1.00;18486;294;7504576;-36
2023/08/01 02:08:10;;;;;;;2.20;1.10;;;;;;;-128.00;-1.00;-1.00;18495;294;7504867;-31
2023/08/01 02:10:36;;;;;;;2.90;1.70;;;;;;;-128.00;-1.00;-1.00;18922;294;7504306;-31
2023/08/01 02:13:02;;;;;;;6.80;1.40;;;;;;;-128.00;-1.00;-1.00;18911;338;7505537;-31
2023/08/01 02:15:28;;;;;;;2.90;1.40;;;;;;;-128.00;-1.00;-1.00;18885;306;7505032;-32
2023/08/01 02:17:55;;;;;;;6.10;1.20;;;;;;;-128.00;-1.00;-1.00;18899;294;7504311;-32
2023/08/01 02:20:21;;;;;;;2.90;1.00;;;;;;;-128.00;-1.00;-1.00;18886;294;7504652;-35
2023/08/01 02:22:47;;;;;;;2.80;1.10;;;;;;;-128.00;-1.00;-1.00;18868;295;7504388;-32
2023/08/01 02:25:13;;;;;;;1.20;0.70;;;;;;;-128.00;-1.00;-1.00;18860;294;7504458;-31
2023/08/01 02:27:40;;;;;;;4.90;1.50;;;;;;;-128.00;-1.00;-1.00;18882;294;7504886;-31
2023/08/01 02:30:06;;;;;;;4.70;1.80;;;;;;;-128.00;-1.00;-1.00;18864;335;7504423;-35
2023/08/01 02:32:32;;;;;;;3.20;1.00;;;;;;;-128.00;-1.00;-1.00;18474;294;7504573;-35
2023/08/01 02:34:58;;;;;;;2.60;1.10;;;;;;;-128.00;-1.00;-1.00;18869;294;7505865;-34
2023/08/01 02:37:25;;;;;;;3.30;1.50;;;;;;;-128.00;-1.00;-1.00;18876;294;7504376;-31
2023/08/01 02:39:51;;;;;;;3.10;1.40;;;;;;;-128.00;-1.00;-1.00;18893;294;7504584;-35
2023/08/01 02:42:17;;;;;;;6.50;1.20;;;;;;;-128.00;-1.00;-1.00;18890;294;7504648;-32
2023/08/01 02:44:43;;;;;;;5.00;1.50;;;;;;;-128.00;-1.00;-1.00;18844;294;7504666;-34
2023/08/01 02:47:10;;;;;;;3.10;1.70;;;;;;;-128.00;-1.00;-1.00;18864;288;7504581;-35
2023/08/01 02:49:36;;;;;;;4.10;1.50;;;;;;;-128.00;-1.00;-1.00;18854;294;7504817;-32
2023/08/01 02:52:03;;;;;;;5.20;1.40;;;;;;;-128.00;-1.00;-1.00;18878;294;7504912;-35
2023/08/01 02:54:29;;;;;;;2.20;0.90;;;;;;;-128.00;-1.00;-1.00;18450;294;7504721;-31
2023/08/01 02:56:54;;;;;;;5.90;1.50;;;;;;;-128.00;-1.00;-1.00;18505;288;7504974;-35
2023/08/01 02:59:20;;;;;;;6.20;2.10;;;;;;;-128.00;-1.00;-1.00;18486;295;7506275;-35
2023/08/01 03:01:46;;;;;;;6.40;1.80;;;;;;;-128.00;-1.00;-1.00;18882;294;7505630;-34
2023/08/01 03:04:12;;;;;;;2.50;1.20;;;;;;;-128.00;-1.00;-1.00;18893;346;7504893;-35
2023/08/01 03:06:38;;;;;;;2.80;1.20;;;;;;;-128.00;-1.00;-1.00;18845;294;7504554;-31
2023/08/01 03:09:07;;;;;;;4.10;1.40;;;;;;;-128.00;-1.00;-1.00;18862;294;7504962;-35
2023/08/01 03:11:37;;;;;;;1.70;1.10;;;;;;;-128.00;-1.00;-1.00;18495;342;7505375;-35
2023/08/01 03:14:04;;;;;;;2.30;1.30;;;;;;;-128.00;-1.00;-1.00;18477;298;7504291;-35
2023/08/01 03:16:30;;;;;;;5.70;1.00;;;;;;;-128.00;-1.00;-1.00;18457;294;7504334;-31
2023/08/01 03:18:56;;;;;;;3.20;1.40;;;;;;;-128.00;-1.00;-1.00;18468;294;7505911;-36
2023/08/01 03:21:22;;;;;;;1.90;1.30;;;;;;;-128.00;-1.00;-1.00;18482;295;7505158;-31
2023/08/01 03:23:47;;;;;;;3.80;1.20;;;;;;;-128.00;-1.00;-1.00;18480;295;7504553;-32
2023/08/01 03:26:15;;;;;;;4.20;1.20;;;;;;;-128.00;-1.00;-1.00;18497;319;7505012;-30
2023/08/01 03:28:40;;;;;;;3.70;1.90;;;;;;;-128.00;-1.00;-1.00;18478;294;7504527;-30
2023/08/01 03:31:06;;;;;;;3.70;1.50;;;;;;;-128.00;-1.00;-1.00;18910;310;7505370;-35
2023/08/01 03:33:33;;;;;;;5.40;1.20;;;;;;;-128.00;-1.00;-1.00;18872;294;7505373;-34
2023/08/01 03:35:59;;;;;;;3.70;1.00;;;;;;;-128.00;-1.00;-1.00;18478;294;7504725;-34
2023/08/01 03:38:25;;;;;;;2.50;0.90;;;;;;;-128.00;-1.00;-1.00;18474;294;7504837;-35
2023/08/01 03:40:50;;;;;;;4.70;1.80;;;;;;;-128.00;-1.00;-1.00;18465;294;7505194;-37
2023/08/01 03:43:16;;;;;;;1.90;1.20;;;;;;;-128.00;-1.00;-1.00;18467;318;7506429;-31
2023/08/01 03:45:42;;;;;;;4.10;1.30;;;;;;;-128.00;-1.00;-1.00;18474;335;7505745;-35
2023/08/01 03:48:08;;;;;;;5.40;1.10;;;;;;;-128.00;-1.00;-1.00;18496;294;7504563;-35
2023/08/01 03:50:35;;;;;;;4.30;1.80;;;;;;;-128.00;-1.00;-1.00;18906;294;7504567;-31
2023/08/01 03:53:01;;;;;;;4.10;1.30;;;;;;;-128.00;-1.00;-1.00;18461;294;7504876;-35
2023/08/01 03:55:27;;;;;;;2.10;1.10;;;;;;;-128.00;-1.00;-1.00;18865;294;7504978;-31
2023/08/01 03:57:53;;;;;;;2.80;1.30;;;;;;;-128.00;-1.00;-1.00;18440;294;7504604;-35
2023/08/01 04:00:20;;;;;;;3.30;1.40;;;;;;;-128.00;-1.00;-1.00;18868;294;7505697;-31
2023/08/01 04:02:46;;;;;;;5.80;1.20;;;;;;;-128.00;-1.00;-1.00;18901;294;7505180;-32
2023/08/01 04:05:12;;;;;;;2.10;1.30;;;;;;;-128.00;-1.00;-1.00;18888;294;7504270;-32
2023/08/01 04:07:38;;;;;;;3.10;1.40;;;;;;;-128.00;-1.00;-1.00;18880;286;7504421;-36
2023/08/01 04:10:05;;;;;;;2.00;0.80;;;;;;;-128.00;-1.00;-1.00;18876;294;7505546;-36
2023/08/01 04:12:32;;;;;;;2.50;1.50;;;;;;;-128.00;-1.00;-1.00;18487;294;7504786;-32
2023/08/01 04:14:58;;;;;;;5.20;1.70;;;;;;;-128.00;-1.00;-1.00;18489;296;7505123;-32
2023/08/01 04:17:23;;;;;;;2.00;1.10;;;;;;;-128.00;-1.00;-1.00;18504;294;7504622;-32
2023/08/01 04:19:49;;;;;;;2.10;1.10;;;;;;;-128.00;-1.00;-1.00;18477;294;7505274;-32
2023/08/01 04:22:16;;;;;;;3.00;0.90;;;;;;;-128.00;-1.00;-1.00;18870;294;7504529;-36
2023/08/01 04:24:42;;;;;;;3.60;1.60;;;;;;;-128.00;-1.00;-1.00;18888;294;7507085;-36
2023/08/01 04:27:08;;;;;;;2.30;0.90;;;;;;;-128.00;-1.00;-1.00;18879;295;7504519;-35
2023/08/01 04:29:34;;;;;;;3.30;1.40;;;;;;;-128.00;-1.00;-1.00;18885;294;7504501;-34
2023/08/01 04:32:01;;;;;;;5.10;1.70;;;;;;;-128.00;-1.00;-1.00;18880;294;7504809;-33
2023/08/01 04:34:27;;;;;;;3.60;1.60;;;;;;;-128.00;-1.00;-1.00;18888;294;7504143;-36
2023/08/01 04:36:53;;;;;;;4.60;1.20;;;;;;;-128.00;-1.00;-1.00;18877;294;7505560;-34
2023/08/01 04:39:19;;;;;;;3.00;1.30;;;;;;;-128.00;-1.00;-1.00;18872;309;7504429;-32
2023/08/01 04:41:45;;;;;;;1.40;0.70;;;;;;;-128.00;-1.00;-1.00;18877;294;7504378;-32
2023/08/01 04:44:11;;;;;;;4.20;1.20;;;;;;;-128.00;-1.00;-1.00;18864;306;7504578;-35
2023/08/01 04:46:38;;;;;;;4.00;1.10;;;;;;;-128.00;-1.00;-1.00;18874;339;7504986;-34
2023/08/01 04:49:04;;;;;;;2.30;1.30;;;;;;;-128.00;-1.00;-1.00;18917;294;7504507;-32
2023/08/01 04:51:30;;;;;;;3.40;1.20;;;;;;;-128.00;-1.00;-1.00;18856;346;7504384;-35
2023/08/01 04:53:56;;;;;;;7.40;1.20;;;;;;;-128.00;-1.00;-1.00;18852;329;7505298;-32
2023/08/01 04:56:23;;;;;;;5.40;0.90;;;;;;;-128.00;-1.00;-1.00;18866;294;7505664;-36
2023/08/01 04:58:50;;;;;;;9.90;1.10;;;;;;;-128.00;-1.00;-1.00;18512;294;7504390;-32
2023/08/01 05:01:16;;;;;;;2.80;1.20;;;;;;;-128.00;-1.00;-1.00;18844;294;7504584;-36
2023/08/01 05:03:42;;;;;;;4.80;1.30;;;;;;;-128.00;-1.00;-1.00;18856;294;7504352;-33
2023/08/01 05:06:09;;;;;;;4.90;1.40;;;;;;;-128.00;-1.00;-1.00;18860;294;7504385;-35
2023/08/01 05:08:36;;;;;;;2.80;1.20;;;;;;;-128.00;-1.00;-1.00;18864;294;7505567;-32
2023/08/01 05:11:02;;;;;;;7.60;1.50;;;;;;;-128.00;-1.00;-1.00;18482;294;7505214;-36
2023/08/01 05:13:28;;;;;;;3.90;1.20;;;;;;;-128.00;-1.00;-1.00;18451;294;7505888;-33
2023/08/01 05:15:54;;;;;;;1.80;1.00;;;;;;;-128.00;-1.00;-1.00;18470;288;7505258;-32
2023/08/01 05:18:20;;;;;;;3.10;0.90;;;;;;;-128.00;-1.00;-1.00;18856;294;7504585;-36
2023/08/01 05:20:46;;;;;;;4.30;1.10;;;;;;;-128.00;-1.00;-1.00;18891;294;7504153;-35
2023/08/01 05:23:12;;;;;;;2.40;1.10;;;;;;;-128.00;-1.00;-1.00;18884;294;7504954;-36
2023/08/01 05:25:39;;;;;;;5.00;1.20;;;;;;;-128.00;-1.00;-1.00;18899;310;7504844;-32
2023/08/01 05:28:05;;;;;;;3.60;0.80;;;;;;;-128.00;-1.00;-1.00;18915;294;7504481;-32
2023/08/01 05:30:31;;;;;;;2.90;1.30;;;;;;;-128.00;-1.00;-1.00;18875;294;7504208;-32
2023/08/01 05:32:57;;;;;;;3.70;1.10;;;;;;;-128.00;-1.00;-1.00;18903;294;7504947;-35
2023/08/01 05:35:24;;;;;;;2.90;0.90;;;;;;;-128.00;-1.00;-1.00;18882;294;7504448;-35
2023/08/01 05:37:50;;;;;;;3.10;1.00;;;;;;;-128.00;-1.00;-1.00;18876;288;7504439;-32
2023/08/01 05:40:16;;;;;;;3.20;1.20;;;;;;;-128.00;-1.00;-1.00;18865;294;7504876;-35
2023/08/01 05:42:43;;;;;;;5.90;1.40;;;;;;;-128.00;-1.00;-1.00;18857;294;7504212;-36
2023/08/01 05:45:11;;;;;;;5.60;1.10;;;;;;;-128.00;-1.00;-1.00;18887;294;7504399;-34
2023/08/01 05:47:37;;;;;;;2.00;0.80;;;;;;;-128.00;-1.00;-1.00;18489;294;7504675;-36
2023/08/01 05:50:03;;;;;;;8.10;1.00;;;;;;;-128.00;-1.00;-1.00;18513;294;7504442;-35
2023/08/01 05:52:30;;;;;;;1.00;0.70;;;;;;;-128.00;-1.00;-1.00;18487;294;7504338;-36
2023/08/01 05:54:55;;;;;;;2.40;1.00;;;;;;;-128.00;-1.00;-1.00;18478;306;7505940;-34
2023/08/01 05:57:21;;;;;;;4.60;1.10;;;;;;;-128.00;-1.00;-1.00;18867;294;7504194;-32
2023/08/01 05:59:48;;;;;;;2.80;1.10;;;;;;;-128.00;-1.00;-1.00;18882;294;7504846;-32
2023/08/01 06:02:14;;;;;;;2.00;0.90;;;;;;;-128.00;-1.00;-1.00;18468;339;7506296;-35
2023/08/01 06:04:40;;;;;;;3.40;1.20;;;;;;;-128.00;-1.00;-1.00;18468;335;7504711;-32
2023/08/01 06:07:06;;;;;;;1.80;1.20;;;;;;;-128.00;-1.00;-1.00;18461;294;7506088;-36
2023/08/01 06:09:32;;;;;;;7.30;1.40;;;;;;;-128.00;-1.00;-1.00;18871;294;7504558;-36
2023/08/01 06:11:58;;;;;;;7.20;1.20;;;;;;;-128.00;-1.00;-1.00;18473;294;7506717;-36
2023/08/01 06:14:24;;;;;;;3.20;1.30;;;;;;;-128.00;-1.00;-1.00;18472;295;7505533;-32
2023/08/01 06:16:50;;;;;;;1.50;0.80;;;;;;;-128.00;-1.00;-1.00;18470;294;7505155;-36
2023/08/01 06:19:16;;;;;;;2.40;1.40;;;;;;;-128.00;-1.00;-1.00;18478;294;7505399;-32
2023/08/01 06:21:41;;;;;;;1.30;0.80;;;;;;;-128.00;-1.00;-1.00;18483;318;7504886;-32
2023/08/01 06:24:08;;;;;;;7.80;1.00;;;;;;;-128.00;-1.00;-1.00;18870;294;7504355;-36
2023/08/01 06:26:35;;;;;;;8.70;1.50;;;;;;;-128.00;-1.00;-1.00;18488;294;7506609;-32
2023/08/01 06:29:00;;;;;;;5.00;1.50;;;;;;;-128.00;-1.00;-1.00;18505;294;7504811;-32
2023/08/01 06:31:26;;;;;;;4.00;1.50;;;;;;;-128.00;-1.00;-1.00;18881;296;7505600;-32
2023/08/01 06:33:53;;;;;;;2.00;1.20;;;;;;;-128.00;-1.00;-1.00;18865;295;7504452;-36
2023/08/01 06:36:19;;;;;;;4.30;1.00;;;;;;;-128.00;-1.00;-1.00;18875;318;7504863;-32
2023/08/01 06:38:46;;;;;;;11.60;1.00;;;;;;;-128.00;-1.00;-1.00;18868;294;7504183;-36
2023/08/01 06:41:12;;;;;;;4.60;1.50;;;;;;;-128.00;-1.00;-1.00;18881;318;7504621;-32
2023/08/01 06:43:38;;;;;;;2.10;1.10;;;;;;;-128.00;-1.00;-1.00;18908;306;7506472;-36
2023/08/01 06:46:05;;;;;;;4.10;1.30;;;;;;;-128.00;-1.00;-1.00;18862;294;7504807;-32
2023/08/01 06:48:34;;;;;;;9.80;1.50;;;;;;;-128.00;-1.00;-1.00;18884;294;7505038;-36
2023/08/01 06:51:05;;;;;;;1.70;1.10;;;;;;;-128.00;-1.00;-1.00;18478;294;7504586;-36
2023/08/01 06:53:30;;;;;;;2.60;1.40;;;;;;;-128.00;-1.00;-1.00;18487;294;7505863;-32
2023/08/01 06:55:56;;;;;;;3.40;0.90;;;;;;;-128.00;-1.00;-1.00;18503;294;7504476;-32
2023/08/01 06:58:22;;;;;;;3.60;1.50;;;;;;;-128.00;-1.00;-1.00;18459;347;7504977;-35
2023/08/01 07:00:48;;;;;;;3.30;1.10;;;;;;;-128.00;-1.00;-1.00;18885;294;7506032;-31
2023/08/01 07:03:14;;;;;;;2.60;1.20;;;;;;;-128.00;-1.00;-1.00;18913;321;7505124;-32
2023/08/01 07:05:40;;;;;;;2.20;1.10;;;;;;;-128.00;-1.00;-1.00;18849;294;7505079;-31
2023/08/01 07:08:07;;;;;;;3.30;1.20;;;;;;;-128.00;-1.00;-1.00;18870;294;7505046;-31
2023/08/01 07:10:37;;;;;;;2.20;1.20;;;;;;;-128.00;-1.00;-1.00;18859;294;7504236;-32
2023/08/01 07:13:04;;;;;;;3.10;1.10;;;;;;;-128.00;-1.00;-1.00;18481;294;7504243;-32
2023/08/01 07:15:33;;;;;;;6.90;1.80;;;;;;;-128.00;-1.00;-1.00;18485;294;7504918;-36
2023/08/01 07:17:59;;;;;;;2.90;1.30;;;;;;;-128.00;-1.00;-1.00;18502;294;7504422;-37
2023/08/01 07:20:25;;;;;;;5.40;1.80;;;;;;;-128.00;-1.00;-1.00;18465;294;7506506;-32
2023/08/01 07:22:50;;;;;;;4.60;1.40;;;;;;;-128.00;-1.00;-1.00;18505;294;7504776;-32
2023/08/01 07:25:19;;;;;;;12.50;1.90;;;;;;;-128.00;-1.00;-1.00;18462;294;7506207;-36
2023/08/01 07:27:45;;;;;;;2.30;1.60;;;;;;;-128.00;-1.00;-1.00;18467;335;7505995;-36
2023/08/01 07:30:11;;;;;;;3.10;1.60;;;;;;;-128.00;-1.00;-1.00;18502;322;7506184;-32
2023/08/01 07:32:39;;;;;;;3.00;1.70;;;;;;;-128.00;-1.00;-1.00;18476;288;7504641;-32
2023/08/01 07:35:06;;;;;;;5.30;1.90;;;;;;;-128.00;-1.00;-1.00;18507;294;7504929;-36
2023/08/01 07:37:35;;;;;;;13.30;1.50;;;;;;;-128.00;-1.00;-1.00;18512;294;7504755;-32
2023/08/01 07:40:00;;;;;;;4.50;2.50;;;;;;;-128.00;-1.00;-1.00;18500;346;7506026;-32
2023/08/01 07:42:26;;;;;;;2.90;2.40;;;;;;;-128.00;-1.00;-1.00;18483;294;7504565;-36
2023/08/01 07:44:52;;;;;;;6.40;2.20;;;;;;;-128.00;-1.00;-1.00;18857;346;7505036;-36
2023/08/01 07:47:18;;;;;;;2.90;2.40;;;;;;;-128.00;-1.00;-1.00;18903;294;7504787;-32
2023/08/01 07:49:45;;;;;;;6.60;2.30;;;;;;;-128.00;-1.00;-1.00;18877;294;7504485;-36
2023/08/01 07:52:12;;;;;;;2.60;2.00;;;;;;;-128.00;-1.00;-1.00;18456;334;7504264;-33
2023/08/01 07:54:38;;;;;;;3.10;1.70;;;;;;;-128.00;-1.00;-1.00;18470;294;7504492;-36
2023/08/01 07:57:04;;;;;;;3.00;1.60;;;;;;;-128.00;-1.00;-1.00;18471;288;7504682;-36
2023/08/01 07:59:30;;;;;;;6.00;1.60;;;;;;;-128.00;-1.00;-1.00;18456;297;7504704;-33
2023/08/01 08:01:56;;;;;;;5.90;2.30;;;;;;;-128.00;-1.00;-1.00;18894;294;7505118;-36
2023/08/01 08:04:22;;;;;;;3.60;2.50;;;;;;;-128.00;-1.00;-1.00;18936;335;7504708;-33
2023/08/01 08:06:51;;;;;;;2.50;1.50;;;;;;;-128.00;-1.00;-1.00;18454;294;7506269;-37
2023/08/01 08:09:17;;;;;;;3.00;2.20;;;;;;;-128.00;-1.00;-1.00;18491;294;7504551;-36
2023/08/01 08:11:43;;;;;;;2.60;1.80;;;;;;;-128.00;-1.00;-1.00;18462;339;7504647;-33
2023/08/01 08:14:09;;;;;;;5.80;1.90;;;;;;;-128.00;-1.00;-1.00;18458;294;7506340;-34
2023/08/01 08:16:34;;;;;;;3.30;1.50;;;;;;;-128.00;-1.00;-1.00;18518;306;7504353;-36
2023/08/01 08:19:00;;;;;;;5.10;2.00;;;;;;;-128.00;-1.00;-1.00;18878;294;7504912;-38
2023/08/01 08:21:27;;;;;;;2.50;1.60;;;;;;;-128.00;-1.00;-1.00;18864;294;7504909;-36
2023/08/01 08:23:53;;;;;;;3.60;2.60;;;;;;;-128.00;-1.00;-1.00;18873;294;7504415;-33
2023/08/01 08:26:19;;;;;;;2.90;1.90;;;;;;;-128.00;-1.00;-1.00;18914;346;7504456;-37
2023/08/01 08:28:45;;;;;;;5.50;2.60;;;;;;;-128.00;-1.00;-1.00;18886;294;7505625;-37
2023/08/01 08:31:12;;;;;;;4.10;2.10;;;;;;;-128.00;-1.00;-1.00;18857;294;7504981;-34
2023/08/01 08:33:38;;;;;;;3.40;1.90;;;;;;;-128.00;-1.00;-1.00;18859;294;7504871;-37
2023/08/01 08:36:04;;;;;;;3.40;2.20;;;;;;;-128.00;-1.00;-1.00;18867;294;7504773;-37
2023/08/01 08:38:31;;;;;;;5.10;1.80;;;;;;;-128.00;-1.00;-1.00;18875;288;7504576;-37
2023/08/01 08:41:15;;;;;;;16.10;2.40;;;;;;;-128.00;-1.00;-1.00;18876;294;7507153;-37
2023/08/01 08:43:41;;;;;;;2.40;2.20;;;;;;;-128.00;-1.00;-1.00;18476;294;7504433;-37
2023/08/01 08:46:08;;;;;;;3.30;2.20;;;;;;;-128.00;-1.00;-1.00;18466;294;7504475;-37
2023/08/01 08:48:35;;;;;;;2.60;1.60;;;;;;;-128.00;-1.00;-1.00;18484;294;7505860;-37
2023/08/01 08:51:01;;;;;;;3.50;2.10;;;;;;;-128.00;-1.00;-1.00;18476;294;7506154;-36
2023/08/01 08:53:30;;;;;;;1.80;1.60;;;;;;;-128.00;-1.00;-1.00;18451;294;7506000;-35
2023/08/01 08:55:56;;;;;;;2.80;2.00;;;;;;;-128.00;-1.00;-1.00;18481;346;7504340;-35
2023/08/01 08:58:21;;;;;;;4.60;1.70;;;;;;;-128.00;-1.00;-1.00;18483;294;7504697;-33
2023/08/01 09:00:47;;;;;;;2.10;1.00;;;;;;;-128.00;-1.00;-1.00;18460;347;7506250;-32
2023/08/01 09:03:13;;;;;;;1.70;1.30;;;;;;;-128.00;-1.00;-1.00;18487;294;7505133;-35
2023/08/01 09:05:45;;;;;;;3.80;2.20;;;;;;;-128.00;-1.00;-1.00;18908;294;7505410;-37
2023/08/01 09:08:15;;;;;;;7.30;1.10;;;;;;;-128.00;-1.00;-1.00;18464;295;7505000;-38
2023/08/01 09:10:41;;;;;;;1.80;1.30;;;;;;;-128.00;-1.00;-1.00;18487;294;7506108;-38
2023/08/01 09:13:08;;;;;;;7.00;2.50;;;;;;;-128.00;-1.00;-1.00;18525;294;7504616;-32
2023/08/01 09:15:33;;;;;;;1.80;1.20;;;;;;;-128.00;-1.00;-1.00;18505;335;7505097;-35
2023/08/01 09:18:00;;;;;;;8.60;3.20;;;;;;;-128.00;-1.00;-1.00;18890;302;7504431;-33
2023/08/01 09:20:27;;;;;;;8.90;2.90;;;;;;;-128.00;-1.00;-1.00;18467;282;7504752;-36
2023/08/01 09:22:53;;;;;;;5.60;3.70;;;;;;;-128.00;-1.00;-1.00;18186;288;8087908;-35
2023/08/01 09:25:19;;;;;;;4.00;2.50;;;;;;;-128.00;-1.00;-1.00;18866;347;7504663;-35
2023/08/01 09:27:46;;;;;;;4.00;2.00;;;;;;;-128.00;-1.00;-1.00;18916;294;7504737;-36
2023/08/01 09:30:15;;;;;;;9.80;2.30;;;;;;;-128.00;-1.00;-1.00;18479;294;7505453;-31
2023/08/01 09:32:56;;;;;;;4.20;2.30;;;;;;;-128.00;-1.00;-1.00;18462;294;7506168;-32
2023/08/01 09:35:23;;;;;;;4.20;2.20;;;;;;;-128.00;-1.00;-1.00;18486;346;7504608;-33
2023/08/01 09:37:49;;;;;;;2.10;1.90;;;;;;;-128.00;-1.00;-1.00;18512;294;7505356;-32
2023/08/01 09:40:14;;;;;;;2.80;1.80;;;;;;;-128.00;-1.00;-1.00;18482;294;7506935;-32
2023/08/01 09:42:41;;;;;;;4.40;1.80;;;;;;;-128.00;-1.00;-1.00;18470;342;7504686;-36
2023/08/01 09:45:17;;;;;;;7.60;2.20;;;;;;;-128.00;-1.00;-1.00;18493;294;7504475;-36
2023/08/01 09:47:43;;;;;;;3.40;2.20;;;;;;;-128.00;-1.00;-1.00;18506;294;7504168;-35
2023/08/01 09:50:10;;;;;;;2.80;2.20;;;;;;;-128.00;-1.00;-1.00;18457;339;7504528;-36
2023/08/01 09:52:36;;;;;;;3.90;2.30;;;;;;;-128.00;-1.00;-1.00;18454;294;7505127;-33
2023/08/01 09:55:03;;;;;;;5.30;2.70;;;;;;;-128.00;-1.00;-1.00;18493;346;7506058;-33
2023/08/01 09:57:29;;;;;;;2.30;2.00;;;;;;;-128.00;-1.00;-1.00;18473;310;7504759;-33
2023/08/01 09:59:57;;;;;;;3.50;2.10;;;;;;;-128.00;-1.00;-1.00;18489;294;7505442;-34
2023/08/01 10:02:24;;;;;;;4.50;2.00;;;;;;;-128.00;-1.00;-1.00;18493;294;7504910;-34
2023/08/01 10:04:51;;;;;;;6.70;3.20;;;;;;;-128.00;-1.00;-1.00;18505;294;7505319;-33
2023/08/01 10:07:17;;;;;;;1.90;1.30;;;;;;;-128.00;-1.00;-1.00;18461;286;7505031;-33
2023/08/01 10:09:45;;;;;;;3.30;2.00;;;;;;;-128.00;-1.00;-1.00;18479;306;7505744;-34
2023/08/01 10:12:12;;;;;;;5.50;2.90;;;;;;;-128.00;-1.00;-1.00;18464;294;7504816;-34
2023/08/01 10:14:37;;;;;;;5.10;2.00;;;;;;;-128.00;-1.00;-1.00;18519;318;7504112;-33
2023/08/01 10:17:04;;;;;;;3.50;1.70;;;;;;;-128.00;-1.00;-1.00;18472;294;7504569;-33
2023/08/01 10:19:31;;;;;;;2.10;1.40;;;;;;;-128.00;-1.00;-1.00;18459;339;7504639;-33
2023/08/01 10:21:57;;;;;;;5.70;2.00;;;;;;;-128.00;-1.00;-1.00;18457;335;7504579;-37
2023/08/01 10:24:24;;;;;;;4.30;1.80;;;;;;;-128.00;-1.00;-1.00;18483;294;7504339;-32
2023/08/01 10:26:49;;;;;;;5.20;2.10;;;;;;;-128.00;-1.00;-1.00;18456;294;7504543;-33
2023/08/01 10:29:15;;;;;;;4.70;2.70;;;;;;;-128.00;-1.00;-1.00;18902;339;7504606;-36
2023/08/01 10:31:54;;;;;;;5.30;2.70;;;;;;;-128.00;-1.00;-1.00;18876;294;7505326;-35
2023/08/01 10:34:23;;;;;;;5.90;3.20;;;;;;;-128.00;-1.00;-1.00;18484;339;7504779;-35
2023/08/01 10:36:55;;;;;;;4.40;2.80;;;;;;;-128.00;-1.00;-1.00;18469;294;7504492;-35
2023/08/01 10:39:22;;;;;;;5.90;1.50;;;;;;;-128.00;-1.00;-1.00;18483;294;7504515;-32
2023/08/01 10:42:01;;;;;;;3.90;2.20;;;;;;;-128.00;-1.00;-1.00;18512;294;7505761;-36
2023/08/01 10:44:27;;;;;;;2.80;1.70;;;;;;;-128.00;-1.00;-1.00;18475;335;7504609;-37
2023/08/01 10:47:05;;;;;;;3.90;2.40;;;;;;;-128.00;-1.00;-1.00;18478;294;7504663;-33
2023/08/01 10:49:45;;;;;;;3.50;2.40;;;;;;;-128.00;-1.00;-1.00;18504;295;7504470;-36
2023/08/01 10:52:27;;;;;;;4.30;1.90;;;;;;;-128.00;-1.00;-1.00;18476;335;7506264;-36
2023/08/01 10:54:59;;;;;;;3.30;2.20;;;;;;;-128.00;-1.00;-1.00;18484;283;7505034;-33
2023/08/01 10:57:26;;;;;;;7.80;2.80;;;;;;;-128.00;-1.00;-1.00;18515;342;7504309;-36
2023/08/01 10:59:52;;;;;;;4.10;2.60;;;;;;;-128.00;-1.00;-1.00;18463;286;7506555;-36
2023/08/01 11:02:23;;;;;;;14.40;2.60;;;;;;;-128.00;-1.00;-1.00;18454;306;7505238;-37
2023/08/01 11:05:01;;;;;;;3.20;2.40;;;;;;;-128.00;-1.00;-1.00;18477;295;7506431;-37
2023/08/01 11:07:27;;;;;;;2.80;2.00;;;;;;;-128.00;-1.00;-1.00;18517;294;7505665;-37
2023/08/01 11:10:06;;;;;;;3.10;2.80;;;;;;;-128.00;-1.00;-1.00;18478;294;7505346;-34
2023/08/01 11:12:36;;;;;;;3.70;3.10;;;;;;;-128.00;-1.00;-1.00;18486;294;7506085;-35
2023/08/01 11:15:03;;;;;;;3.70;2.80;;;;;;;-128.00;-1.00;-1.00;18448;294;7506688;-35
2023/08/01 11:17:29;;;;;;;3.00;2.40;;;;;;;-128.00;-1.00;-1.00;18468;286;7504839;-34
2023/08/01 11:20:08;;;;;;;5.30;2.70;;;;;;;-128.00;-1.00;-1.00;18471;294;7505379;-38
2023/08/01 11:22:34;;;;;;;2.60;2.30;;;;;;;-128.00;-1.00;-1.00;18508;294;7505877;-34
2023/08/01 11:25:00;;;;;;;3.10;2.00;;;;;;;-128.00;-1.00;-1.00;18509;294;7504553;-37
2023/08/01 11:27:26;;;;;;;3.60;2.70;;;;;;;-128.00;-1.00;-1.00;18470;294;7505800;-37
2023/08/01 11:29:53;;;;;;;3.50;2.90;;;;;;;-128.00;-1.00;-1.00;18468;314;7504299;-34
2023/08/01 11:32:20;;;;;;;4.20;2.20;;;;;;;-128.00;-1.00;-1.00;18485;335;7504662;-33
2023/08/01 11:34:46;;;;;;;6.80;3.50;;;;;;;-128.00;-1.00;-1.00;18481;294;7505551;-36
2023/08/01 11:37:13;;;;;;;2.80;2.40;;;;;;;-128.00;-1.00;-1.00;18482;294;7504127;-33
2023/08/01 11:39:39;;;;;;;5.60;3.10;;;;;;;-128.00;-1.00;-1.00;18485;294;7506093;-33
2023/08/01 11:42:05;;;;;;;10.40;2.00;;;;;;;-128.00;-1.00;-1.00;18467;294;7505789;-37
2023/08/01 11:44:30;;;;;;;7.50;2.80;;;;;;;-128.00;-1.00;-1.00;18462;294;7504765;-33
2023/08/01 11:46:57;;;;;;;3.20;2.20;;;;;;;-128.00;-1.00;-1.00;18874;335;7504626;-38
2023/08/01 11:49:23;;;;;;;4.60;3.10;;;;;;;-128.00;-1.00;-1.00;18913;294;7505344;-34
2023/08/01 11:51:49;;;;;;;3.30;2.70;;;;;;;-128.00;-1.00;-1.00;18893;335;7504350;-35
2023/08/01 11:54:17;;;;;;;5.50;3.00;;;;;;;-128.00;-1.00;-1.00;18868;335;7505272;-32
2023/08/01 11:56:43;;;;;;;3.10;2.20;;;;;;;-128.00;-1.00;-1.00;18473;294;7504705;-31
2023/08/01 11:59:13;;;;;;;7.10;2.50;;;;;;;-128.00;-1.00;-1.00;18489;294;7505076;-32
2023/08/01 12:01:44;;;;;;;4.80;2.40;;;;;;;-128.00;-1.00;-1.00;18471;346;7504245;-31
2023/08/01 12:04:10;;;;;;;3.50;2.40;;;;;;;-128.00;-1.00;-1.00;18461;294;7504672;-37
2023/08/01 12:06:37;;;;;;;5.20;2.80;;;;;;;-128.00;-1.00;-1.00;18457;339;7504493;-33
2023/08/01 12:09:11;;;;;;;5.30;2.60;;;;;;;-128.00;-1.00;-1.00;18465;294;7505184;-33
2023/08/01 12:11:38;;;;;;;4.30;2.40;;;;;;;-128.00;-1.00;-1.00;18481;339;7506007;-36
2023/08/01 12:14:12;;;;;;;5.50;2.90;;;;;;;-128.00;-1.00;-1.00;18479;294;7506266;-37